sensor_id;sensor_type;location;lat;lon;timestamp;pressure;altitude;pressure_sealevel;temperature;humidity
11038;BME280;5572;49.540;11.932;2024-01-16T00:00:19;96331.75;;;0.45;100.00
11038;BME280;5572;49.540;11.932;2024-01-16T00:02:46;96341.03;;;0.42;100.00
11038;BME280;5572;49.540;11.932;2024-01-16T00:05:13;96342.75;;;0.48;100.00
11038;BME280;5572;49.540;11.932;2024-01-16T00:07:41;96339.50;;;0.46;100.00
11038;BME280;5572;49.540;11.932;2024-01-16T00:10:09;96349.34;;;0.46;100.00
11038;BME280;5572;49.540;11.932;2024-01-16T00:12:36;96345.53;;;0.30;100.00
11038;BME280;5572;49.540;11.932;2024-01-16T00:15:03;96339.41;;;0.30;100.00
11038;BME280;5572;49.540;11.932;2024-01-16T00:17:31;96342.97;;;0.24;100.00
11038;BME280;5572;49.540;11.932;2024-01-16T00:19:58;96341.69;;;0.15;100.00
11038;BME280;5572;49.540;11.932;2024-01-16T00:22:27;96337.19;;;0.27;100.00
11038;BME280;5572;49.540;11.932;2024-01-16T00:24:55;96346.56;;;0.18;100.00
11038;BME280;5572;49.540;11.932;2024-01-16T00:27:21;96353.38;;;0.14;100.00
11038;BME280;5572;49.540;11.932;2024-01-16T00:29:48;96354.97;;;0.03;100.00
11038;BME280;5572;49.540;11.932;2024-01-16T00:32:16;96353.72;;;0.06;100.00
11038;BME280;5572;49.540;11.932;2024-01-16T00:34:43;96352.44;;;0.08;100.00
11038;BME280;5572;49.540;11.932;2024-01-16T00:37:09;96367.06;;;-0.12;100.00
11038;BME280;5572;49.540;11.932;2024-01-16T00:39:36;96354.25;;;-0.15;100.00
11038;BME280;5572;49.540;11.932;2024-01-16T00:42:05;96360.34;;;-0.14;100.00
11038;BME280;5572;49.540;11.932;2024-01-16T00:44:32;96348.84;;;-0.08;100.00
11038;BME280;5572;49.540;11.932;2024-01-16T00:47:00;96339.00;;;-0.08;100.00
11038;BME280;5572;49.540;11.932;2024-01-16T00:49:27;96356.44;;;-0.12;100.00
11038;BME280;5572;49.540;11.932;2024-01-16T00:51:54;96350.31;;;-0.12;100.00
11038;BME280;5572;49.540;11.932;2024-01-16T00:54:21;96351.69;;;-0.10;100.00
11038;BME280;5572;49.540;11.932;2024-01-16T00:56:47;96360.56;;;-0.27;100.00
11038;BME280;5572;49.540;11.932;2024-01-16T00:59:15;96347.22;;;-0.09;100.00
11038;BME280;5572;49.540;11.932;2024-01-16T01:01:42;96350.13;;;0.00;100.00
11038;BME280;5572;49.540;11.932;2024-01-16T01:04:09;96353.72;;;0.06;100.00
11038;BME280;5572;49.540;11.932;2024-01-16T01:06:36;96368.56;;;-0.04;100.00
11038;BME280;5572;49.540;11.932;2024-01-16T01:09:03;96372.16;;;-0.10;100.00
11038;BME280;5572;49.540;11.932;2024-01-16T01:11:29;96375.06;;;-0.01;100.00
11038;BME280;5572;49.540;11.932;2024-01-16T01:13:56;96397.34;;;-0.02;100.00
11038;BME280;5572;49.540;11.932;2024-01-16T01:16:24;96396.78;;;0.08;100.00
11038;BME280;5572;49.540;11.932;2024-01-16T01:18:51;96413.53;;;0.08;100.00
11038;BME280;5572;49.540;11.932;2024-01-16T01:21:18;96420.09;;;-0.05;100.00
11038;BME280;5572;49.540;11.932;2024-01-16T01:23:46;96416.16;;;-0.03;100.00
11038;BME280;5572;49.540;11.932;2024-01-16T01:26:13;96416.78;;;-0.19;100.00
11038;BME280;5572;49.540;11.932;2024-01-16T01:28:40;96422.59;;;-0.10;100.00
11038;BME280;5572;49.540;11.932;2024-01-16T01:31:08;96424.13;;;-0.03;100.00
11038;BME280;5572;49.540;11.932;2024-01-16T01:33:36;96426.81;;;0.08;100.00
11038;BME280;5572;49.540;11.932;2024-01-16T01:36:03;96429.25;;;0.10;100.00
11038;BME280;5572;49.540;11.932;2024-01-16T01:38:30;96435.78;;;-0.04;100.00
11038;BME280;5572;49.540;11.932;2024-01-16T01:40:57;96430.75;;;0.06;100.00
11038;BME280;5572;49.540;11.932;2024-01-16T01:43:25;96434.31;;;0.00;100.00
11038;BME280;5572;49.540;11.932;2024-01-16T01:46:08;96438.81;;;-0.01;100.00
11038;BME280;5572;49.540;11.932;2024-01-16T01:48:38;96442.47;;;-0.13;100.00
11038;BME280;5572;49.540;11.932;2024-01-16T01:51:06;96452.41;;;-0.08;100.00
11038;BME280;5572;49.540;11.932;2024-01-16T01:53:34;96453.81;;;-0.06;100.00
11038;BME280;5572;49.540;11.932;2024-01-16T01:56:03;96456.00;;;-0.03;100.00
11038;BME280;5572;49.540;11.932;2024-01-16T01:58:31;96463.03;;;-0.08;100.00
11038;BME280;5572;49.540;11.932;2024-01-16T02:00:59;96465.00;;;-0.04;100.00
11038;BME280;5572;49.540;11.932;2024-01-16T02:03:27;96473.00;;;0.07;100.00
11038;BME280;5572;49.540;11.932;2024-01-16T02:05:57;96481.47;;;0.16;100.00
11038;BME280;5572;49.540;11.932;2024-01-16T02:08:24;96488.75;;;0.09;100.00
11038;BME280;5572;49.540;11.932;2024-01-16T02:10:51;96487.38;;;0.18;100.00
11038;BME280;5572;49.540;11.932;2024-01-16T02:13:19;96487.75;;;0.21;100.00
11038;BME280;5572;49.540;11.932;2024-01-16T02:15:49;96475.47;;;0.20;100.00
11038;BME280;5572;49.540;11.932;2024-01-16T02:18:15;96491.56;;;-0.04;100.00
11038;BME280;5572;49.540;11.932;2024-01-16T02:20:42;96494.75;;;0.04;100.00
11038;BME280;5572;49.540;11.932;2024-01-16T02:23:12;96495.09;;;0.08;100.00
11038;BME280;5572;49.540;11.932;2024-01-16T02:25:41;96500.16;;;0.09;100.00
11038;BME280;5572;49.540;11.932;2024-01-16T02:28:08;96505.53;;;-0.08;100.00
11038;BME280;5572;49.540;11.932;2024-01-16T02:30:35;96492.69;;;-0.11;100.00
11038;BME280;5572;49.540;11.932;2024-01-16T02:33:02;96501.06;;;-0.26;100.00
11038;BME280;5572;49.540;11.932;2024-01-16T02:35:30;96493.97;;;-0.14;100.00
11038;BME280;5572;49.540;11.932;2024-01-16T02:37:56;96493.88;;;-0.07;100.00
11038;BME280;5572;49.540;11.932;2024-01-16T02:40:23;96493.88;;;-0.07;100.00
11038;BME280;5572;49.540;11.932;2024-01-16T02:42:51;96494.31;;;-0.10;100.00
11038;BME280;5572;49.540;11.932;2024-01-16T02:45:17;96494.22;;;-0.04;100.00
11038;BME280;5572;49.540;11.932;2024-01-16T02:47:44;96501.00;;;-0.08;100.00
11038;BME280;5572;49.540;11.932;2024-01-16T02:50:11;96511.84;;;-0.21;100.00
11038;BME280;5572;49.540;11.932;2024-01-16T02:52:37;96517.72;;;-0.19;100.00
11038;BME280;5572;49.540;11.932;2024-01-16T02:55:05;96506.31;;;-0.08;100.00
11038;BME280;5572;49.540;11.932;2024-01-16T02:57:32;96518.94;;;-0.03;100.00
11038;BME280;5572;49.540;11.932;2024-01-16T03:00:01;96515.78;;;-0.12;100.00
11038;BME280;5572;49.540;11.932;2024-01-16T03:02:28;96521.38;;;-0.02;100.00
11038;BME280;5572;49.540;11.932;2024-01-16T03:04:55;96518.81;;;-0.08;100.00
11038;BME280;5572;49.540;11.932;2024-01-16T03:07:22;96532.88;;;-0.08;100.00
11038;BME280;5572;49.540;11.932;2024-01-16T03:09:49;96523.00;;;-0.01;100.00
11038;BME280;5572;49.540;11.932;2024-01-16T03:12:15;96532.13;;;0.03;100.00
11038;BME280;5572;49.540;11.932;2024-01-16T03:14:43;96543.22;;;0.00;100.00
11038;BME280;5572;49.540;11.932;2024-01-16T03:17:11;96539.97;;;-0.02;100.00
11038;BME280;5572;49.540;11.932;2024-01-16T03:19:38;96533.75;;;0.04;100.00
11038;BME280;5572;49.540;11.932;2024-01-16T03:22:05;96543.50;;;-0.08;100.00
11038;BME280;5572;49.540;11.932;2024-01-16T03:24:32;96554.72;;;-0.06;100.00
11038;BME280;5572;49.540;11.932;2024-01-16T03:26:58;96559.81;;;-0.04;100.00
11038;BME280;5572;49.540;11.932;2024-01-16T03:29:25;96558.19;;;0.12;100.00
11038;BME280;5572;49.540;11.932;2024-01-16T03:31:51;96553.97;;;0.05;100.00
11038;BME280;5572;49.540;11.932;2024-01-16T03:34:19;96557.22;;;0.07;100.00
11038;BME280;5572;49.540;11.932;2024-01-16T03:36:46;96554.50;;;-0.04;100.00
11038;BME280;5572;49.540;11.932;2024-01-16T03:39:13;96575.97;;;-0.06;100.00
11038;BME280;5572;49.540;11.932;2024-01-16T03:41:39;96556.22;;;0.19;100.00
11038;BME280;5572;49.540;11.932;2024-01-16T03:44:06;96566.34;;;0.11;100.00
11038;BME280;5572;49.540;11.932;2024-01-16T03:46:33;96575.47;;;0.03;100.00
11038;BME280;5572;49.540;11.932;2024-01-16T03:48:59;96575.47;;;0.03;100.00
11038;BME280;5572;49.540;11.932;2024-01-16T03:51:27;96586.66;;;0.05;100.00
11038;BME280;5572;49.540;11.932;2024-01-16T03:53:54;96586.81;;;0.10;100.00
11038;BME280;5572;49.540;11.932;2024-01-16T03:56:21;96583.13;;;0.11;100.00
11038;BME280;5572;49.540;11.932;2024-01-16T03:58:48;96597.59;;;-0.03;100.00
11038;BME280;5572;49.540;11.932;2024-01-16T04:01:14;96583.88;;;0.00;100.00
11038;BME280;5572;49.540;11.932;2024-01-16T04:03:41;96585.19;;;0.09;100.00
11038;BME280;5572;49.540;11.932;2024-01-16T04:06:23;96595.28;;;0.01;100.00
11038;BME280;5572;49.540;11.932;2024-01-16T04:08:51;96596.63;;;0.10;100.00
11038;BME280;5572;49.540;11.932;2024-01-16T04:11:17;96602.97;;;-0.09;100.00
11038;BME280;5572;49.540;11.932;2024-01-16T04:13:44;96593.81;;;0.05;100.00
11038;BME280;5572;49.540;11.932;2024-01-16T04:16:12;96599.66;;;0.13;100.00
11038;BME280;5572;49.540;11.932;2024-01-16T04:18:40;96605.69;;;0.20;100.00
11038;BME280;5572;49.540;11.932;2024-01-16T04:21:06;96612.50;;;-0.02;100.00
11038;BME280;5572;49.540;11.932;2024-01-16T04:23:33;96610.44;;;0.00;100.00
11038;BME280;5572;49.540;11.932;2024-01-16T04:26:01;96610.03;;;0.15;100.00
11038;BME280;5572;49.540;11.932;2024-01-16T04:28:28;96604.59;;;-0.08;100.00
11038;BME280;5572;49.540;11.932;2024-01-16T04:30:55;96602.75;;;0.10;100.00
11038;BME280;5572;49.540;11.932;2024-01-16T04:33:22;96615.06;;;0.05;100.00
11038;BME280;5572;49.540;11.932;2024-01-16T04:35:48;96608.19;;;0.15;100.00
11038;BME280;5572;49.540;11.932;2024-01-16T04:38:15;96610.19;;;0.02;100.00
11038;BME280;5572;49.540;11.932;2024-01-16T04:40:42;96615.81;;;-0.06;100.00
11038;BME280;5572;49.540;11.932;2024-01-16T04:43:10;96611.31;;;0.12;100.00
11038;BME280;5572;49.540;11.932;2024-01-16T04:45:36;96614.72;;;0.01;100.00
11038;BME280;5572;49.540;11.932;2024-01-16T04:48:03;96619.06;;;0.14;100.00
11038;BME280;5572;49.540;11.932;2024-01-16T04:50:30;96611.03;;;0.02;100.00
11038;BME280;5572;49.540;11.932;2024-01-16T04:52:57;96607.78;;;0.00;100.00
11038;BME280;5572;49.540;11.932;2024-01-16T04:55:25;96600.13;;;-0.07;100.00
11038;BME280;5572;49.540;11.932;2024-01-16T04:57:53;96608.88;;;-0.25;100.00
11038;BME280;5572;49.540;11.932;2024-01-16T05:00:21;96601.81;;;-0.13;100.00
11038;BME280;5572;49.540;11.932;2024-01-16T05:02:47;96606.09;;;-0.12;100.00
11038;BME280;5572;49.540;11.932;2024-01-16T05:05:14;96599.22;;;-0.02;100.00
11038;BME280;5572;49.540;11.932;2024-01-16T05:07:41;96576.59;;;-0.22;100.00
11038;BME280;5572;49.540;11.932;2024-01-16T05:10:10;96585.66;;;-0.29;100.00
11038;BME280;5572;49.540;11.932;2024-01-16T05:12:38;96603.66;;;-0.31;100.00
11038;BME280;5572;49.540;11.932;2024-01-16T05:15:06;96606.44;;;-0.44;100.00
11038;BME280;5572;49.540;11.932;2024-01-16T15:46:56;96569.66;;;-0.83;100.00
11038;BME280;5572;49.540;11.932;2024-01-16T15:49:26;96570.50;;;-0.83;100.00
11038;BME280;5572;49.540;11.932;2024-01-16T15:51:55;96570.25;;;-0.99;100.00
11038;BME280;5572;49.540;11.932;2024-01-16T15:54:25;96574.84;;;-1.12;100.00
11038;BME280;5572;49.540;11.932;2024-01-16T20:17:49;96726.72;;;-5.88;100.00
11038;BME280;5572;49.540;11.932;2024-01-16T20:20:18;96732.81;;;-5.87;100.00
11038;BME280;5572;49.540;11.932;2024-01-16T20:22:45;96729.38;;;-6.02;100.00
11038;BME280;5572;49.540;11.932;2024-01-16T23:57:28;96589.16;;;-8.87;100.00
11038;BME280;5572;49.540;11.932;2024-01-16T23:59:54;96576.97;;;-8.72;100.00
